This is the latest recevied weather packets stored in our database for station/object NK7E-1. If no packets are shown the sender has not sent any weather packets the latest 10 day(s).
| Time | Temp. | Humidity | Pressure | Rain* | Wind** | Luminosity | Snow |
|---|---|---|---|---|---|---|---|
| 1777608601 | 20° C | 45% | 1011.5 hPa | 0 mm | - | - | - |
| 1777608003 | 21.11° C | 40% | 1011 hPa | 0 mm | - | - | - |
| 1777607401 | 21.11° C | 42% | 1010.4 hPa | 0 mm | - | - | - |
| 1777606801 | 20.56° C | 45% | 1010 hPa | 0 mm | - | - | - |
| 1777606200 | 20.56° C | 47% | 1009.8 hPa | 0 mm | - | - | - |
| 1777605603 | 20° C | 48% | 1009.7 hPa | 0 mm | - | - | - |
| 1777605001 | 20.56° C | 46% | 1009.4 hPa | 0 mm | - | - | - |
| 1777604402 | 21.67° C | 39% | 1009.4 hPa | 0 mm | - | - | - |
| 1777603800 | 22.22° C | 39% | 1009.3 hPa | 0 mm | - | - | - |
| 1777603199 | 22.22° C | 38% | 1008.9 hPa | 0 mm | - | - | - |
| 1777602601 | 21.67° C | 38% | 1008.7 hPa | 0 mm | - | - | - |
| 1777602001 | 22.22° C | 37% | 1008.4 hPa | 0 mm | - | - | - |
| 1777601401 | 22.22° C | 37% | 1008.2 hPa | 0 mm | - | - | - |
| 1777600802 | 22.22° C | 38% | 1008.1 hPa | 0 mm | - | - | - |
| 1777600200 | 23.33° C | 37% | 1008.1 hPa | 0 mm | - | - | - |
| 1777599601 | 23.89° C | 34% | 1007.9 hPa | 0 mm | - | - | - |
| 1777599001 | 24.44° C | 32% | 1007.8 hPa | 0 mm | - | - | - |
| 1777598401 | 24.44° C | 31% | 1007.4 hPa | 0 mm | - | - | - |
| 1777597801 | 25.56° C | 27% | 1006.9 hPa | 0 mm | - | - | - |
| 1777597203 | 26.11° C | 25% | 1006.5 hPa | 0 mm | - | - | - |
| 1777596600 | 27.22° C | 23% | 1006.9 hPa | 0 mm | - | - | - |
| 1777596001 | 27.78° C | 22% | 1006.5 hPa | 0 mm | - | - | - |
| 1777595401 | 28.33° C | 20% | 1006.4 hPa | 0 mm | - | - | - |
| 1777594801 | 28.33° C | 20% | 1006.2 hPa | 0 mm | - | - | - |
| 1777594201 | 28.89° C | 19% | 1006.1 hPa | 0 mm | - | - | - |
* Rain latest hour (hover to see other rain measurements)
** Current wind speed in m/s (hover to see current wind gust speed)